Hauptseite
METAR-TAF:

METAR-TAF

Flughäfen :

Oberpfaffenhofen, Deutschland

Breite: 48-05N, Länge: 011-17E, Höhe: 600 m

Beobachtung

Neuester Wetterbericht von vor 37 Minuten, um 07:50 UTC
Wind 7 kt aus West/Südwest
Temperatur 2°C
Luftfeuchtigkeit 100%
Luftdruck 1022 hPa
Sichtweite: 2500 m
Geschlossene Wolkendecke in der Höhe von 500 ft
feuchter Dunst

METAR: EDMO 180750Z 25007KT 2500 BR OVC005 02/02 Q1022

Zeit: 09:27 (08:27 UTC)

Prognose

Neuester Wetterbericht von vor 13 Stunden und 20 Minuten, um 19:07 UTC
Gültige Prognose vom 17 um 19 UTC bis 18 um 03 UTC
Wind 3 kt aus unterschiedlichen Richtungen
Sichtweite: 4000 m
Durchbrochene Bewölkung in der Höhe von 600 ft
feuchter Dunst
Zeitweise
vom 17 um 19 UTC bis 18 um 03 UTC
Sichtweite: 2000 m
Durchbrochene Bewölkung in der Höhe von 300 ft
feuchter Dunst

TAF: EDMO 171907Z 1719/1803 VRB03KT 4000 BR BKN006 TEMPO 1719/1803 2000 BR BKN003

Wetterbeobachtungen und Prognosen von mehr als 4000 Flughäfen (METAR und TAF Bericht).

Die verfügbaren Stationen werden durch gelbe und rote Markierungen auf der Karte dargestellt.

Führen Sie die Maus auf sie, um den Namen der Station zu sehen.

Darauf klicken, um die Beobachtung von Wetterbeobachtungen und Prognosen zu sehen.

Um die Karte zu ändern : klicken Sie auf den grünen Tasten mit einem schwarzen Kreuz Zum Vergrößern, auf den grünen Button mit einem Gedankenstrich zu verkleinern, oder auf die grünen Pfeile für benachbarte Karten.


METAR-TAF: